Seal Cove, Maine
Current Conditions -  °F | °C
As of 8:15 AM on Friday 24 Oct 2014 (Local Time) from KBHB Reporting Station
Overcast Overcast  
Wind Chill: 44°   Ceiling: 1100
Heat Index: 48°   Visibility: 10mi
Dew Point: 48°   Wind: 9mph
Humidity: 100%   Direction: 360°N
Pressure: 29.63"   Gusts: NA
Location:  44.28°N, 68.4°W
Report Text: KBHB 241215Z AUTO 36008KT 10SM OVC011 09/09 A2963 RMK AO1
Loading
Personal Weather Stations






























Interactive Weather Map
Tropical Storm Tracking
New forecast layout! Learn more

10-Day Weather Forecast

Advertisements
Track Severe Weather on mobile